createdAt,value
2023-01-30T21:01:24.320Z,84.92
2023-01-30T21:03:53.216Z,85.07
2023-01-30T21:06:42.500Z,85.29
2023-01-30T21:09:13.740Z,85.20
2023-01-30T21:11:40.492Z,85.30
2023-01-30T21:14:07.570Z,85.30
2023-01-30T21:16:35.648Z,85.38
2023-01-30T21:19:05.549Z,85.41
2023-01-30T21:21:33.031Z,85.36
2023-01-30T21:24:02.485Z,85.44
2023-01-30T21:26:31.837Z,85.50
2023-01-30T21:29:01.166Z,85.56
2023-01-30T21:31:30.978Z,85.57
2023-01-30T21:33:59.506Z,85.51
2023-01-30T21:36:27.571Z,85.79
2023-01-30T21:39:13.674Z,85.83
2023-01-30T21:42:01.136Z,86.16
2023-01-30T21:44:33.433Z,86.47
2023-01-30T21:46:59.981Z,86.48
2023-01-30T21:49:26.780Z,86.56
2023-01-30T21:51:54.462Z,86.58
2023-01-30T21:54:21.899Z,86.75
2023-01-30T21:56:49.554Z,86.91
2023-01-30T21:59:16.758Z,86.82
2023-01-30T22:01:43.878Z,86.92
2023-01-30T22:04:16.642Z,87.00
2023-01-30T22:06:43.813Z,87.02
2023-01-30T22:09:14.458Z,87.00
2023-01-30T22:11:41.485Z,86.95
2023-01-30T22:14:08.432Z,86.92
2023-01-30T22:16:35.147Z,87.04
2023-01-30T22:19:04.736Z,86.88
2023-01-30T22:21:35.149Z,86.98
2023-01-30T22:24:03.482Z,87.11
2023-01-30T22:26:30.482Z,87.16
2023-01-30T22:28:59.259Z,87.21
2023-01-30T22:31:28.386Z,87.27
2023-01-30T22:33:56.485Z,87.18
2023-01-30T22:36:24.743Z,87.28
2023-01-30T22:38:52.718Z,87.39
2023-01-30T22:41:24.868Z,87.44
2023-01-30T22:43:57.149Z,87.42
2023-01-30T22:46:25.496Z,87.44
2023-01-30T22:48:52.853Z,87.25
2023-01-30T22:51:28.511Z,87.39
2023-01-30T22:53:58.087Z,87.34
2023-01-30T22:56:37.075Z,87.63
2023-01-30T22:59:04.572Z,87.58
2023-01-30T23:01:38.107Z,87.69
2023-01-30T23:04:07.721Z,87.58
2023-01-30T23:06:34.534Z,87.63
2023-01-30T23:09:02.396Z,87.75
2023-01-30T23:11:44.437Z,87.78
2023-01-30T23:14:14.359Z,87.80
2023-01-30T23:16:43.598Z,87.98
2023-01-30T23:19:12.344Z,87.90
2023-01-30T23:21:45.398Z,88.06
2023-01-30T23:24:20.383Z,87.88
2023-01-30T23:26:51.256Z,88.00
2023-01-30T23:29:19.980Z,88.00
2023-01-30T23:31:47.853Z,88.29
2023-01-30T23:34:19.082Z,88.29
2023-01-30T23:36:46.502Z,88.44
2023-01-30T23:39:14.349Z,88.59
2023-01-30T23:41:42.233Z,88.77
2023-01-30T23:44:09.585Z,89.05
2023-01-30T23:46:39.090Z,89.15
2023-01-30T23:49:11.653Z,89.08
2023-01-30T23:51:40.784Z,89.16
2023-01-30T23:54:08.517Z,89.29
2023-01-30T23:56:37.647Z,89.47
2023-01-30T23:59:05.182Z,89.56
